createdAt,value
2022-08-12T00:00:03.984Z,82.73
2022-08-12T00:01:03.972Z,83.75
2022-08-12T00:02:05.595Z,83.75
2022-08-12T00:03:03.974Z,83.24
2022-08-12T00:04:03.907Z,83.34
2022-08-12T00:05:03.901Z,83.75
2022-08-12T00:06:05.226Z,83.38
2022-08-12T00:07:03.886Z,83.54
2022-08-12T00:08:03.894Z,83.18
2022-08-12T00:09:03.872Z,83.59
2022-08-12T00:10:03.840Z,83.14
2022-08-12T00:11:09.785Z,83.99
2022-08-12T00:12:04.841Z,83.79
2022-08-12T00:13:03.822Z,83.54
2022-08-12T00:14:03.801Z,83.08
2022-08-12T00:15:03.836Z,83.79
2022-08-12T00:16:03.781Z,83.48
2022-08-12T00:17:03.781Z,84.09
2022-08-12T00:18:03.755Z,84.30
2022-08-12T00:19:03.747Z,84.20
2022-08-12T00:20:03.734Z,84.40
2022-08-12T00:21:03.724Z,84.09
2022-08-12T00:22:03.880Z,83.79
2022-08-12T00:23:03.716Z,83.79
2022-08-12T00:24:03.705Z,84.09
2022-08-12T00:25:03.690Z,83.89
2022-08-12T00:26:21.322Z,83.89
2022-08-12T00:27:04.760Z,83.38
2022-08-12T00:28:03.649Z,84.20
2022-08-12T00:29:03.689Z,84.30
2022-08-12T00:30:03.629Z,83.89
2022-08-12T00:31:03.611Z,83.83
2022-08-12T00:32:03.611Z,83.38
2022-08-12T00:33:04.111Z,83.79
2022-08-12T00:34:03.584Z,84.09
2022-08-12T00:35:08.634Z,84.34
2022-08-12T00:36:04.570Z,83.83
2022-08-12T00:37:12.986Z,83.93
2022-08-12T00:38:04.552Z,83.93
2022-08-12T00:39:03.537Z,84.09
2022-08-12T00:40:04.612Z,84.20
2022-08-12T00:41:04.502Z,83.89
2022-08-12T00:42:03.520Z,83.62
2022-08-12T00:43:03.492Z,83.38
2022-08-12T00:44:03.489Z,83.48
2022-08-12T00:45:03.458Z,83.28
2022-08-12T00:46:03.454Z,83.18
2022-08-12T00:47:03.444Z,83.69
2022-08-12T00:48:03.468Z,84.09
2022-08-12T00:49:03.431Z,83.89
2022-08-12T00:50:03.429Z,83.73
2022-08-12T00:51:03.399Z,84.03
2022-08-12T00:52:03.386Z,84.13
2022-08-12T00:53:03.369Z,84.09
2022-08-12T00:54:03.370Z,84.03
2022-08-12T00:55:03.374Z,83.99
2022-08-12T00:56:03.356Z,84.74
2022-08-12T00:57:03.333Z,84.64
2022-08-12T00:58:03.324Z,84.23
2022-08-12T00:59:03.305Z,85.15
2022-08-12T01:00:03.300Z,84.40
2022-08-12T01:01:03.346Z,85.35
2022-08-12T01:02:12.107Z,85.15
2022-08-12T01:03:04.280Z,84.88
2022-08-12T01:04:03.254Z,85.55
2022-08-12T01:05:03.250Z,85.19
2022-08-12T01:06:03.281Z,85.39
2022-08-12T01:07:03.229Z,85.80
2022-08-12T01:08:03.228Z,85.60
2022-08-12T01:09:03.219Z,85.90
2022-08-12T01:10:03.195Z,85.90
2022-08-12T01:11:03.182Z,85.49
2022-08-12T01:12:03.165Z,85.70
2022-08-12T01:13:07.195Z,86.21
2022-08-12T01:14:04.160Z,86.21
2022-08-12T01:15:03.137Z,86.00
2022-08-12T01:16:03.162Z,85.80
2022-08-12T01:17:03.115Z,85.80
2022-08-12T01:18:03.106Z,86.31
2022-08-12T01:19:03.126Z,86.31
2022-08-12T01:20:03.085Z,86.21
2022-08-12T01:21:03.070Z,85.49
2022-08-12T01:22:03.086Z,85.70
2022-08-12T01:23:03.050Z,85.60
2022-08-12T01:24:30.050Z,86.10
2022-08-12T01:25:04.020Z,86.31
2022-08-12T01:26:03.032Z,86.10
2022-08-12T01:27:03.006Z,85.80
2022-08-12T01:28:03.053Z,85.49
2022-08-12T01:29:02.994Z,85.80
2022-08-12T01:30:02.973Z,86.35
2022-08-12T01:31:02.963Z,85.94
2022-08-12T01:32:02.952Z,86.65
2022-08-12T01:33:02.984Z,85.84
2022-08-12T01:34:02.985Z,85.94
2022-08-12T01:35:02.931Z,86.15
2022-08-12T01:36:08.521Z,85.90
2022-08-12T01:37:03.889Z,85.94
2022-08-12T01:38:02.900Z,85.94
2022-08-12T01:39:03.008Z,85.94
2022-08-12T01:40:35.056Z,86.35
2022-08-12T01:41:04.037Z,85.64
2022-08-12T01:42:02.847Z,86.04
2022-08-12T01:43:02.829Z,87.37
2022-08-12T01:44:02.818Z,86.80
2022-08-12T01:45:02.802Z,87.51
2022-08-12T01:46:02.793Z,87.10
2022-08-12T01:47:02.880Z,86.90
2022-08-12T01:48:04.934Z,88.02
2022-08-12T01:49:02.776Z,87.20
2022-08-12T01:50:02.754Z,87.10
2022-08-12T01:51:06.125Z,86.86
2022-08-12T01:52:20.960Z,87.47
2022-08-12T01:53:03.718Z,85.94
2022-08-12T01:54:02.712Z,87.37
2022-08-12T01:55:02.786Z,86.65
2022-08-12T01:56:02.686Z,87.30
2022-08-12T01:57:02.685Z,87.41
2022-08-12T01:58:02.711Z,87.00
2022-08-12T01:59:02.658Z,85.94
2022-08-12T02:00:02.653Z,86.49
2022-08-12T02:01:02.715Z,86.04
2022-08-12T02:02:02.630Z,86.04
2022-08-12T02:03:02.625Z,86.69
2022-08-12T02:04:02.604Z,87.51
2022-08-12T02:05:02.589Z,86.86
2022-08-12T02:06:02.578Z,87.51
2022-08-12T02:07:02.590Z,87.41
2022-08-12T02:08:02.580Z,88.02
2022-08-12T02:09:02.550Z,87.20
2022-08-12T02:10:02.535Z,87.81
2022-08-12T02:11:02.518Z,87.81
2022-08-12T02:12:04.613Z,87.75
2022-08-12T02:13:02.544Z,88.16
2022-08-12T02:14:02.543Z,87.85
2022-08-12T02:15:02.476Z,87.85
2022-08-12T02:16:02.465Z,87.92
2022-08-12T02:17:02.457Z,88.06
2022-08-12T02:18:02.463Z,87.81
2022-08-12T02:19:02.451Z,88.12
2022-08-12T02:20:03.428Z,88.02
2022-08-12T02:21:02.408Z,87.41
2022-08-12T02:22:04.765Z,88.02
2022-08-12T02:23:02.408Z,87.61
2022-08-12T02:24:02.386Z,87.61
2022-08-12T02:25:02.370Z,87.65
2022-08-12T02:26:02.403Z,87.75
2022-08-12T02:27:02.348Z,87.55
2022-08-12T02:28:06.060Z,87.14
2022-08-12T02:29:03.340Z,87.14
2022-08-12T02:30:02.321Z,87.35
2022-08-12T02:31:02.308Z,87.35
2022-08-12T02:32:02.345Z,87.75
2022-08-12T02:33:02.284Z,87.75
2022-08-12T02:34:02.273Z,87.85
2022-08-12T02:35:02.279Z,87.81
2022-08-12T02:36:02.255Z,87.75
2022-08-12T02:37:02.606Z,87.96
2022-08-12T02:38:02.295Z,88.16
2022-08-12T02:39:02.217Z,87.96
2022-08-12T02:40:02.206Z,87.65
2022-08-12T02:41:02.211Z,87.85
2022-08-12T02:42:02.190Z,88.16
2022-08-12T02:43:02.173Z,87.96
2022-08-12T02:44:02.297Z,87.96
2022-08-12T02:45:02.161Z,87.75
2022-08-12T02:46:02.154Z,88.36
2022-08-12T02:47:02.132Z,88.57
2022-08-12T02:48:02.122Z,88.36
2022-08-12T02:49:02.160Z,88.57
2022-08-12T02:50:02.108Z,88.26
2022-08-12T02:51:02.101Z,88.10
2022-08-12T02:52:02.075Z,88.51
2022-08-12T02:53:02.066Z,88.16
2022-08-12T02:54:05.523Z,88.40
2022-08-12T02:55:02.050Z,88.61
2022-08-12T02:56:02.047Z,88.26
2022-08-12T02:57:02.082Z,88.36
2022-08-12T02:58:06.733Z,88.67
2022-08-12T02:59:03.030Z,88.26
2022-08-12T03:00:02.017Z,88.51
2022-08-12T03:01:02.021Z,88.26
2022-08-12T03:02:01.981Z,88.57
2022-08-12T03:03:01.958Z,88.40
2022-08-12T03:04:01.959Z,88.87
2022-08-12T03:05:01.994Z,88.71
2022-08-12T03:06:01.939Z,88.61
2022-08-12T03:07:01.913Z,88.67
2022-08-12T03:08:02.027Z,88.36
2022-08-12T03:09:01.893Z,88.61
2022-08-12T03:10:04.558Z,88.92
2022-08-12T03:11:02.948Z,88.71
2022-08-12T03:12:01.857Z,89.01
2022-08-12T03:13:01.852Z,88.61
2022-08-12T03:14:01.853Z,88.71
2022-08-12T03:15:01.827Z,88.61
2022-08-12T03:16:01.819Z,88.51
2022-08-12T03:17:01.822Z,89.12
2022-08-12T03:18:23.611Z,89.01
2022-08-12T03:19:02.809Z,88.92
2022-08-12T03:20:09.700Z,89.22
2022-08-12T03:21:02.765Z,89.12
2022-08-12T03:22:09.179Z,89.01
2022-08-12T03:23:02.750Z,89.42
2022-08-12T03:24:01.735Z,89.01
2022-08-12T03:25:01.718Z,89.32
2022-08-12T03:26:02.244Z,89.22
2022-08-12T03:27:01.712Z,89.32
2022-08-12T03:28:01.697Z,88.92
2022-08-12T03:29:01.781Z,88.92
2022-08-12T03:30:01.665Z,89.22
2022-08-12T03:31:01.656Z,89.63
2022-08-12T03:32:01.656Z,88.92
2022-08-12T03:33:01.677Z,89.12
2022-08-12T03:34:03.245Z,88.92
2022-08-12T03:35:01.627Z,89.01
2022-08-12T03:36:01.605Z,89.12
2022-08-12T03:37:01.602Z,89.26
2022-08-12T03:38:01.595Z,89.36
2022-08-12T03:39:01.614Z,89.22
2022-08-12T03:40:01.641Z,89.12
2022-08-12T03:41:01.562Z,88.96
2022-08-12T03:42:01.553Z,88.81
2022-08-12T03:43:01.523Z,89.12
2022-08-12T03:44:01.529Z,89.63
2022-08-12T03:45:01.530Z,89.53
2022-08-12T03:46:01.496Z,89.47
2022-08-12T03:47:01.592Z,89.73
2022-08-12T03:48:01.474Z,90.03
2022-08-12T03:49:01.460Z,89.42
2022-08-12T03:50:01.451Z,89.01
2022-08-12T03:51:01.461Z,89.22
2022-08-12T03:52:01.437Z,89.32
2022-08-12T03:53:01.431Z,89.73
2022-08-12T03:54:01.421Z,90.08
2022-08-12T03:55:01.393Z,90.03
2022-08-12T03:56:01.390Z,90.38
2022-08-12T03:57:01.453Z,89.77
2022-08-12T03:58:01.367Z,89.77
2022-08-12T03:59:01.364Z,90.08
2022-08-12T04:00:01.348Z,90.18
2022-08-12T04:01:01.439Z,89.87
2022-08-12T04:02:01.329Z,90.08
2022-08-12T04:03:01.311Z,90.18
2022-08-12T04:04:01.371Z,90.18
2022-08-12T04:05:01.289Z,90.28
2022-08-12T04:06:01.277Z,89.97
2022-08-12T04:07:01.293Z,89.87
2022-08-12T04:08:01.273Z,89.87
2022-08-12T04:09:01.250Z,89.87
2022-08-12T04:10:01.235Z,90.01
2022-08-12T04:11:01.243Z,89.67
2022-08-12T04:12:01.219Z,89.67
2022-08-12T04:13:01.210Z,89.87
2022-08-12T04:14:01.209Z,90.18
2022-08-12T04:15:01.189Z,90.69
2022-08-12T04:16:01.173Z,89.77
2022-08-12T04:17:01.186Z,90.18
2022-08-12T04:18:07.320Z,90.18
2022-08-12T04:19:02.159Z,89.97
2022-08-12T04:20:01.133Z,90.01
2022-08-12T04:21:01.114Z,89.97
2022-08-12T04:22:03.529Z,90.38
2022-08-12T04:23:01.132Z,90.38
2022-08-12T04:24:01.092Z,89.87
2022-08-12T04:25:01.428Z,90.32
2022-08-12T04:26:01.060Z,90.38
2022-08-12T04:27:01.057Z,90.08
2022-08-12T04:28:13.292Z,90.53
2022-08-12T04:29:02.059Z,90.73
2022-08-12T04:30:21.084Z,90.53
2022-08-12T04:31:02.023Z,90.83
2022-08-12T04:32:00.996Z,90.73
2022-08-12T04:33:00.994Z,90.73
2022-08-12T04:34:00.983Z,91.03
2022-08-12T04:35:00.998Z,91.24
2022-08-12T04:36:00.986Z,91.03
2022-08-12T04:37:00.948Z,91.24
2022-08-12T04:38:01.264Z,91.14
2022-08-12T04:39:00.930Z,91.24
2022-08-12T04:40:00.911Z,91.24
2022-08-12T04:41:00.921Z,91.65
2022-08-12T04:42:00.921Z,91.35
2022-08-12T04:43:00.924Z,90.83
2022-08-12T04:44:02.613Z,90.83
2022-08-12T04:45:00.869Z,90.59
2022-08-12T04:46:00.847Z,90.42
2022-08-12T04:47:00.947Z,90.83
2022-08-12T04:48:00.858Z,90.73
2022-08-12T04:49:00.817Z,90.79
2022-08-12T04:50:00.800Z,90.73
2022-08-12T04:51:00.804Z,90.48
2022-08-12T04:52:00.780Z,90.38
2022-08-12T04:53:00.823Z,90.99
2022-08-12T04:54:00.765Z,90.69
2022-08-12T04:55:00.804Z,90.48
2022-08-12T04:56:00.740Z,91.30
2022-08-12T04:57:03.507Z,91.30
2022-08-12T04:58:00.715Z,91.30
2022-08-12T04:59:00.720Z,90.79
2022-08-12T05:00:00.696Z,91.96
2022-08-12T05:01:00.726Z,92.16
2022-08-12T05:02:00.745Z,92.05
2022-08-12T05:03:00.761Z,92.36
2022-08-12T05:04:00.652Z,91.91
2022-08-12T05:05:01.342Z,91.85
2022-08-12T05:06:00.651Z,92.05
2022-08-12T05:07:00.715Z,91.96
2022-08-12T05:08:00.620Z,91.14
2022-08-12T05:09:00.638Z,91.35
2022-08-12T05:10:02.221Z,91.39
2022-08-12T05:11:00.582Z,91.08
2022-08-12T05:12:00.570Z,91.08
2022-08-12T05:13:00.592Z,91.89
2022-08-12T05:14:00.572Z,91.79
2022-08-12T05:15:00.561Z,92.00
2022-08-12T05:16:04.540Z,92.10
2022-08-12T05:17:01.516Z,91.44
2022-08-12T05:18:02.263Z,91.14
2022-08-12T05:19:01.518Z,91.91
2022-08-12T05:20:00.485Z,90.55
2022-08-12T05:21:00.506Z,89.03
2022-08-12T05:22:00.471Z,88.18
2022-08-12T05:23:05.360Z,86.07
2022-08-12T05:24:01.434Z,86.37
2022-08-12T05:25:00.450Z,86.49
2022-08-12T05:26:00.453Z,83.51
2022-08-12T05:27:00.411Z,82.80
2022-08-12T05:28:00.396Z,83.47
2022-08-12T05:29:00.385Z,82.21
2022-08-12T05:30:07.125Z,81.30
2022-08-12T05:31:01.375Z,81.34
2022-08-12T05:32:00.410Z,81.85
2022-08-12T05:33:00.602Z,81.85
2022-08-12T05:34:00.327Z,81.71
2022-08-12T05:35:00.329Z,81.77
2022-08-12T05:36:00.428Z,81.06
2022-08-12T05:37:00.301Z,81.63
2022-08-12T05:38:00.440Z,80.27
2022-08-12T05:39:00.284Z,81.23
2022-08-12T05:40:00.402Z,81.09
2022-08-12T05:41:00.262Z,81.09
2022-08-12T05:42:00.258Z,80.82
2022-08-12T05:43:00.229Z,80.58
2022-08-12T05:44:00.263Z,80.38
2022-08-12T05:45:00.218Z,79.22
2022-08-12T05:46:00.201Z,79.29
2022-08-12T05:47:00.216Z,79.96
2022-08-12T05:48:00.201Z,78.71
2022-08-12T05:49:00.168Z,76.79
2022-08-12T05:50:00.154Z,76.12
2022-08-12T05:51:00.143Z,77.43
2022-08-12T05:52:00.236Z,77.64
2022-08-12T05:53:00.125Z,77.23
2022-08-12T05:54:00.133Z,76.97
2022-08-12T05:55:00.119Z,78.38
2022-08-12T05:56:00.087Z,77.40
2022-08-12T05:57:00.104Z,78.78
2022-08-12T05:58:00.075Z,77.67
2022-08-12T05:59:00.085Z,77.30
2022-08-12T06:00:00.088Z,76.66
2022-08-12T06:01:00.056Z,76.32
2022-08-12T06:02:09.110Z,76.08
2022-08-12T06:03:01.441Z,75.51
2022-08-12T06:04:00.118Z,76.39
2022-08-12T06:05:00.001Z,75.40
2022-08-12T06:06:00.001Z,74.63
2022-08-12T06:06:59.983Z,74.70
2022-08-12T06:08:03.131Z,74.80
2022-08-12T06:08:59.963Z,74.46
2022-08-12T06:09:59.976Z,75.34
2022-08-12T06:10:59.955Z,73.32
2022-08-12T06:12:06.235Z,73.55
2022-08-12T06:13:00.915Z,73.52
2022-08-12T06:13:59.900Z,74.26
2022-08-12T06:14:59.898Z,76.22
2022-08-12T06:15:59.884Z,75.51
2022-08-12T06:16:59.933Z,76.18
2022-08-12T06:17:59.854Z,75.34
2022-08-12T06:18:59.854Z,74.22
2022-08-12T06:20:26.366Z,75.10
2022-08-12T06:21:01.870Z,74.09
2022-08-12T06:21:59.804Z,74.49
2022-08-12T06:22:59.795Z,74.40
2022-08-12T06:23:59.790Z,74.49
2022-08-12T06:24:59.812Z,75.67
2022-08-12T06:25:59.794Z,73.25
2022-08-12T06:26:59.761Z,74.40
2022-08-12T06:28:06.088Z,74.32
2022-08-12T06:29:00.736Z,73.05
2022-08-12T06:30:09.956Z,72.44
2022-08-12T06:31:25.741Z,76.58
2022-08-12T06:32:00.703Z,73.25
2022-08-12T06:33:11.669Z,74.26
2022-08-12T06:35:26.534Z,74.76
2022-08-12T06:35:27.017Z,74.32
2022-08-12T06:36:00.691Z,72.27
2022-08-12T06:36:59.686Z,73.88
2022-08-12T06:37:59.643Z,71.84
2022-08-12T06:38:59.626Z,71.73
2022-08-12T06:40:03.674Z,72.00
2022-08-12T06:40:59.597Z,71.33
2022-08-12T06:42:02.573Z,73.75
2022-08-12T06:43:00.693Z,72.24
2022-08-12T06:44:05.639Z,73.38
2022-08-12T06:45:00.606Z,72.07
2022-08-12T06:45:59.549Z,73.08
2022-08-12T06:46:59.570Z,72.67
2022-08-12T06:47:59.640Z,73.88
2022-08-12T06:48:59.679Z,73.88
2022-08-12T06:49:59.599Z,73.38
2022-08-12T06:50:59.493Z,73.35
2022-08-12T06:51:59.516Z,73.45
2022-08-12T06:52:59.477Z,73.24
2022-08-12T06:53:59.472Z,70.63
2022-08-12T06:54:59.477Z,70.16
2022-08-12T06:55:59.432Z,69.76
2022-08-12T06:57:04.304Z,70.03
2022-08-12T06:58:07.376Z,70.03
2022-08-12T06:59:00.407Z,69.79
2022-08-12T06:59:59.454Z,71.23
2022-08-12T07:00:59.515Z,71.37
2022-08-12T07:01:59.388Z,71.97
2022-08-12T07:02:59.364Z,72.00
2022-08-12T07:04:14.360Z,74.29
2022-08-12T07:05:00.341Z,73.65
2022-08-12T07:05:59.375Z,73.65
2022-08-12T07:06:59.328Z,72.00
2022-08-12T07:07:59.345Z,72.17
2022-08-12T07:09:00.302Z,73.05
2022-08-12T07:10:06.379Z,73.32
2022-08-12T07:11:00.293Z,71.20
2022-08-12T07:11:59.465Z,71.56
2022-08-12T07:12:59.262Z,71.53
2022-08-12T07:14:12.557Z,71.36
2022-08-12T07:15:00.253Z,71.20
2022-08-12T07:15:59.224Z,72.11
2022-08-12T07:16:59.239Z,72.47
2022-08-12T07:17:59.209Z,71.33
2022-08-12T07:18:59.200Z,72.84
2022-08-12T07:20:03.926Z,71.83
2022-08-12T07:21:00.226Z,70.23
2022-08-12T07:22:02.220Z,71.00
2022-08-12T07:22:59.215Z,69.96
2022-08-12T07:23:59.144Z,71.00
2022-08-12T07:24:59.130Z,72.14
2022-08-12T07:25:59.147Z,71.84
2022-08-12T07:26:59.113Z,71.53
2022-08-12T07:27:59.092Z,74.42
2022-08-12T07:28:59.125Z,71.23
2022-08-12T07:30:04.849Z,70.03
2022-08-12T07:31:00.060Z,71.26
2022-08-12T07:31:59.054Z,72.44
2022-08-12T07:33:01.794Z,70.59
2022-08-12T07:33:59.023Z,70.16
2022-08-12T07:34:59.053Z,71.50
2022-08-12T07:35:59.006Z,72.51
2022-08-12T07:36:59.095Z,70.36
2022-08-12T07:37:58.981Z,71.94
2022-08-12T07:38:59.007Z,71.56
2022-08-12T07:39:59.774Z,71.36
2022-08-12T07:40:58.960Z,71.56
2022-08-12T07:41:58.938Z,72.24
2022-08-12T07:42:58.949Z,72.07
2022-08-12T07:44:03.933Z,73.24
2022-08-12T07:44:59.941Z,69.89
2022-08-12T07:45:58.897Z,71.87
2022-08-12T07:46:58.905Z,69.89
2022-08-12T07:47:58.874Z,73.18
2022-08-12T07:48:58.866Z,72.17
2022-08-12T07:50:04.388Z,72.47
2022-08-12T07:50:59.850Z,74.15
2022-08-12T07:51:58.845Z,71.30
2022-08-12T07:52:58.822Z,70.76
2022-08-12T07:54:00.799Z,71.60
2022-08-12T07:54:58.799Z,70.36
2022-08-12T07:55:58.794Z,72.37
2022-08-12T07:56:58.840Z,70.83
2022-08-12T07:57:58.775Z,71.60
2022-08-12T07:58:58.778Z,69.92
2022-08-12T07:59:58.742Z,71.39
2022-08-12T08:00:58.751Z,69.29
2022-08-12T08:01:58.763Z,70.03
2022-08-12T08:02:58.778Z,71.70
2022-08-12T08:03:58.707Z,71.73
2022-08-12T08:04:58.694Z,69.69
2022-08-12T08:05:58.677Z,69.39
2022-08-12T08:06:58.675Z,69.69
2022-08-12T08:07:58.662Z,72.00
2022-08-12T08:08:58.715Z,71.53
2022-08-12T08:09:59.208Z,71.33
2022-08-12T08:11:02.283Z,70.76
2022-08-12T08:11:59.770Z,70.19
2022-08-12T08:12:58.715Z,71.73
2022-08-12T08:13:58.599Z,69.76
2022-08-12T08:14:58.629Z,71.16
2022-08-12T08:16:03.389Z,69.56
2022-08-12T08:16:59.837Z,70.23
2022-08-12T08:17:58.713Z,70.03
2022-08-12T08:18:58.578Z,71.06
2022-08-12T08:20:03.691Z,69.89
2022-08-12T08:20:59.522Z,69.89
2022-08-12T08:21:58.523Z,69.99
2022-08-12T08:22:58.502Z,68.19
2022-08-12T08:24:01.976Z,69.06
2022-08-12T08:24:59.540Z,69.06
2022-08-12T08:25:58.489Z,68.19
2022-08-12T08:26:58.457Z,67.82
2022-08-12T08:27:58.444Z,68.15
2022-08-12T08:28:58.468Z,70.32
2022-08-12T08:29:58.425Z,67.45
2022-08-12T08:30:58.455Z,68.72
2022-08-12T08:31:58.416Z,69.59
2022-08-12T08:32:58.393Z,70.46
2022-08-12T08:34:05.104Z,71.33
2022-08-12T08:35:00.946Z,70.26
2022-08-12T08:35:58.379Z,71.23
2022-08-12T08:36:58.408Z,69.62
2022-08-12T08:37:58.333Z,69.79
2022-08-12T08:38:58.867Z,68.02
2022-08-12T08:39:58.373Z,68.55
2022-08-12T08:40:58.303Z,69.76
2022-08-12T08:42:14.032Z,69.49
2022-08-12T08:42:59.335Z,69.53
2022-08-12T08:43:58.269Z,68.26
2022-08-12T08:44:58.722Z,68.85
2022-08-12T08:45:58.248Z,69.56
2022-08-12T08:46:58.238Z,67.72
2022-08-12T08:48:00.313Z,69.53
2022-08-12T08:48:59.624Z,69.06
2022-08-12T08:49:58.240Z,70.23
2022-08-12T08:51:04.768Z,70.23
2022-08-12T08:51:59.182Z,70.69
2022-08-12T08:52:58.222Z,68.32
2022-08-12T08:53:58.162Z,68.59
2022-08-12T08:54:58.166Z,68.96
2022-08-12T08:56:05.852Z,69.62
2022-08-12T08:56:59.123Z,69.42
2022-08-12T08:57:58.120Z,68.16
2022-08-12T08:58:58.107Z,67.02
2022-08-12T08:59:58.100Z,66.99
2022-08-12T09:00:58.136Z,67.96
2022-08-12T09:01:58.201Z,65.79
2022-08-12T09:02:59.485Z,66.72
2022-08-12T09:05:08.432Z,68.16
2022-08-12T09:05:11.973Z,67.43
2022-08-12T09:06:02.395Z,65.49
2022-08-12T09:06:58.019Z,66.99
2022-08-12T09:08:09.009Z,65.25
2022-08-12T09:08:59.041Z,67.69
2022-08-12T09:10:59.852Z,69.73
2022-08-12T09:12:10.557Z,67.99
2022-08-12T09:13:01.157Z,69.43
2022-08-12T09:14:58.963Z,66.49
2022-08-12T09:15:59.572Z,67.12
2022-08-12T09:16:57.917Z,68.99
2022-08-12T09:17:59.176Z,67.62
2022-08-12T09:18:57.905Z,70.29
2022-08-12T09:19:58.160Z,68.66
2022-08-12T09:20:57.871Z,68.16
2022-08-12T09:22:00.145Z,68.76
2022-08-12T09:22:57.842Z,67.36
2022-08-12T09:24:59.942Z,68.96
2022-08-12T09:25:57.822Z,68.05
2022-08-12T09:26:59.102Z,67.99
2022-08-12T09:28:04.741Z,69.32
2022-08-12T09:28:58.921Z,67.93
2022-08-12T09:30:11.418Z,69.09
2022-08-12T09:30:58.963Z,65.99
2022-08-12T09:32:03.586Z,67.72
2022-08-12T09:33:05.970Z,66.75
2022-08-12T09:34:26.120Z,67.13
2022-08-12T09:34:58.750Z,66.86
2022-08-12T09:36:04.950Z,67.46
2022-08-12T09:37:02.553Z,66.25
2022-08-12T09:38:01.143Z,66.69
2022-08-12T09:38:58.554Z,67.46
2022-08-12T09:40:04.447Z,66.49
2022-08-12T09:42:10.038Z,63.92
2022-08-12T09:42:34.918Z,66.13
2022-08-12T09:43:17.569Z,67.76
2022-08-12T09:44:01.272Z,63.53
2022-08-12T09:45:18.541Z,66.13
2022-08-12T09:46:19.934Z,65.97
2022-08-12T09:46:58.605Z,66.00
2022-08-12T09:47:59.802Z,66.26
2022-08-12T09:48:57.595Z,68.76
2022-08-12T09:49:58.649Z,65.60
2022-08-12T09:50:58.638Z,61.83
2022-08-12T09:51:57.633Z,63.40
2022-08-12T09:52:57.724Z,60.53
2022-08-12T09:54:06.051Z,61.69
2022-08-12T09:55:02.395Z,62.81
2022-08-12T09:56:41.085Z,57.61
2022-08-12T09:57:03.767Z,56.91
2022-08-12T09:58:44.952Z,59.31
2022-08-12T09:59:01.417Z,59.83
2022-08-12T10:00:15.531Z,61.63
2022-08-12T10:00:58.551Z,61.69
2022-08-12T10:02:42.010Z,64.45
2022-08-12T10:02:58.882Z,64.69
2022-08-12T10:04:04.274Z,63.45
2022-08-12T10:04:58.505Z,61.35
2022-08-12T10:06:27.574Z,62.65
2022-08-12T10:06:58.414Z,62.52
2022-08-12T10:07:57.396Z,63.12
2022-08-12T10:08:57.357Z,62.59
2022-08-12T10:09:59.213Z,61.66
2022-08-12T10:10:57.346Z,57.76
2022-08-12T10:12:12.288Z,59.70
2022-08-12T10:13:07.714Z,57.29
2022-08-12T10:13:58.333Z,60.75
2022-08-12T10:14:57.294Z,64.33
2022-08-12T10:16:01.973Z,57.61
2022-08-12T10:16:58.290Z,56.04
2022-08-12T10:18:06.806Z,54.67
2022-08-12T10:18:58.363Z,58.06
2022-08-12T10:19:59.359Z,56.34
2022-08-12T10:20:57.451Z,56.24
2022-08-12T10:21:57.246Z,55.26
2022-08-12T10:22:57.572Z,53.96
2022-08-12T10:23:57.247Z,54.76
2022-08-12T10:24:57.191Z,53.54
2022-08-12T10:26:36.163Z,53.41
2022-08-12T10:26:58.207Z,55.76
2022-08-12T10:28:05.087Z,54.43
2022-08-12T10:29:02.538Z,55.26
2022-08-12T10:30:40.545Z,52.55
2022-08-12T10:30:59.109Z,53.36
2022-08-12T10:32:22.335Z,53.99
2022-08-12T10:32:58.502Z,53.94
2022-08-12T10:34:06.695Z,55.41
2022-08-12T10:34:58.100Z,54.59
2022-08-12T10:35:57.073Z,53.34
2022-08-12T10:36:57.060Z,51.35
2022-08-12T10:38:39.051Z,53.06
2022-08-12T10:38:58.052Z,53.89
2022-08-12T10:40:06.887Z,51.72
2022-08-12T10:40:58.068Z,51.97
2022-08-12T10:41:59.853Z,50.30
2022-08-12T10:42:56.987Z,48.70
2022-08-12T10:43:57.087Z,50.74
2022-08-12T10:44:56.996Z,50.67
2022-08-12T10:45:58.408Z,49.99
2022-08-12T10:46:56.958Z,50.79
2022-08-12T10:48:19.164Z,50.17
2022-08-12T10:49:05.461Z,51.42
2022-08-12T10:50:05.049Z,49.02
2022-08-12T10:51:03.344Z,47.63
2022-08-12T10:52:32.590Z,48.72
2022-08-12T10:52:57.879Z,50.49
2022-08-12T10:54:00.993Z,47.60
2022-08-12T10:54:57.859Z,42.73
2022-08-12T10:55:56.850Z,40.81
2022-08-12T10:56:56.835Z,36.41
2022-08-12T10:58:14.362Z,40.58
2022-08-12T10:58:57.818Z,40.56
2022-08-12T11:00:31.892Z,37.57
2022-08-12T11:04:14.814Z,39.64
2022-08-12T11:04:25.902Z,34.55
2022-08-12T11:04:27.574Z,33.05
2022-08-12T11:04:31.476Z,40.22
2022-08-12T11:04:58.362Z,34.55
2022-08-12T11:07:05.820Z,34.94
2022-08-12T11:07:07.183Z,34.83
2022-08-12T11:08:34.095Z,31.76
2022-08-12T11:08:57.808Z,34.05
2022-08-12T11:10:01.429Z,33.47
2022-08-12T11:10:57.685Z,31.48
2022-08-12T11:12:36.792Z,32.68
2022-08-12T11:12:59.910Z,31.19
2022-08-12T11:13:56.648Z,31.69
2022-08-12T11:14:56.645Z,33.76
2022-08-12T11:16:03.989Z,29.38
2022-08-12T11:17:33.614Z,28.40
2022-08-12T11:17:58.030Z,29.60
2022-08-12T11:18:57.588Z,29.58
2022-08-12T11:19:57.705Z,28.00
2022-08-12T11:20:57.799Z,29.28
2022-08-12T11:22:01.289Z,31.49
2022-08-12T11:22:58.728Z,29.60
2022-08-12T11:23:56.534Z,30.19
2022-08-12T11:24:56.521Z,29.88
2022-08-12T11:26:00.473Z,29.30
2022-08-12T11:27:56.502Z,29.39
2022-08-12T11:29:05.626Z,29.68
2022-08-12T11:30:05.566Z,27.30
2022-08-12T11:30:57.474Z,28.99
2022-08-12T11:32:02.745Z,28.10
2022-08-12T11:32:57.581Z,27.32
2022-08-12T11:34:05.528Z,28.00
2022-08-12T11:34:59.334Z,27.42
2022-08-12T11:35:59.730Z,28.52
2022-08-12T11:36:56.357Z,28.50
2022-08-12T11:37:57.998Z,30.16
2022-08-12T11:38:56.340Z,28.50
2022-08-12T11:40:57.369Z,29.61
2022-08-12T11:41:56.310Z,29.00
2022-08-12T11:43:03.601Z,29.90
2022-08-12T11:43:58.266Z,31.18
2022-08-12T11:44:56.276Z,29.48
2022-08-12T11:45:56.713Z,30.29
2022-08-12T11:46:56.260Z,30.19
2022-08-12T11:47:56.244Z,29.50
2022-08-12T11:48:56.228Z,29.30
2022-08-12T11:49:56.212Z,28.10
2022-08-12T11:50:56.215Z,28.50
2022-08-12T11:51:57.783Z,28.30
2022-08-12T11:52:57.161Z,27.70
2022-08-12T11:53:56.406Z,25.99
2022-08-12T11:54:56.169Z,30.10
2022-08-12T11:55:56.193Z,29.99
2022-08-12T11:56:59.956Z,32.68
2022-08-12T11:58:14.383Z,31.77
2022-08-12T12:02:00.985Z,28.40
2022-08-12T12:02:57.131Z,28.99
2022-08-12T12:03:56.062Z,28.19
2022-08-12T12:04:56.053Z,29.30
2022-08-12T12:05:56.041Z,29.82
2022-08-12T12:06:56.049Z,28.02
2022-08-12T12:08:38.900Z,29.00
2022-08-12T12:08:57.021Z,29.41
2022-08-12T12:09:56.023Z,29.43
2022-08-12T12:10:56.178Z,30.62
2022-08-12T12:11:55.999Z,31.69
2022-08-12T12:12:55.986Z,31.09
2022-08-12T12:14:08.176Z,31.87
2022-08-12T12:15:00.481Z,32.59
2022-08-12T12:15:56.938Z,31.99
2022-08-12T12:16:55.928Z,32.77
2022-08-12T12:17:56.079Z,30.31
2022-08-12T12:18:55.957Z,31.70
2022-08-12T12:19:55.902Z,33.88
2022-08-12T12:20:55.892Z,30.11
2022-08-12T12:21:55.875Z,31.52
2022-08-12T12:22:55.878Z,31.69
2022-08-12T12:24:00.968Z,31.99
2022-08-12T12:24:56.858Z,31.79
2022-08-12T12:26:06.678Z,31.81
2022-08-12T12:27:00.473Z,33.68
2022-08-12T12:28:04.932Z,31.90
2022-08-12T12:28:56.817Z,31.29
2022-08-12T12:30:18.701Z,32.87
2022-08-12T12:30:56.784Z,29.99
2022-08-12T12:32:10.476Z,30.49
2022-08-12T12:32:56.773Z,31.99
2022-08-12T12:33:58.033Z,32.98
2022-08-12T12:35:14.439Z,31.48
2022-08-12T12:36:18.355Z,33.47
2022-08-12T12:36:56.723Z,33.45
2022-08-12T12:38:03.917Z,32.86
2022-08-12T12:38:56.791Z,30.05
2022-08-12T12:39:55.861Z,30.18
2022-08-12T12:40:55.683Z,32.67
2022-08-12T12:42:52.296Z,32.09
2022-08-12T12:43:01.701Z,31.62
2022-08-12T12:44:04.546Z,31.82
2022-08-12T12:44:56.678Z,31.92
2022-08-12T12:45:55.690Z,33.81
2022-08-12T12:46:55.623Z,33.50
2022-08-12T12:47:55.701Z,33.42
2022-08-12T12:48:55.602Z,33.81
2022-08-12T12:49:55.587Z,33.40
2022-08-12T12:50:55.581Z,33.88
2022-08-12T12:52:18.172Z,31.72
2022-08-12T12:52:56.554Z,31.72
2022-08-12T12:54:07.772Z,32.22
2022-08-12T12:54:56.533Z,33.50
2022-08-12T12:55:55.521Z,32.67
2022-08-12T12:56:55.527Z,33.40
2022-08-12T12:57:59.957Z,33.73
2022-08-12T12:58:56.522Z,32.75
2022-08-12T12:59:57.310Z,32.55